createdAt,value
2023-04-05T00:02:18.824Z,95.20
2023-04-05T00:04:52.464Z,93.30
2023-04-05T00:10:01.723Z,98.80
2023-04-05T00:12:28.585Z,99.90
2023-04-05T00:14:55.457Z,99.90
2023-04-05T00:17:22.586Z,99.90
2023-04-05T00:19:56.258Z,99.90
2023-04-05T00:22:26.134Z,99.90
2023-04-05T00:24:52.978Z,99.90
2023-04-05T00:27:20.333Z,99.90
2023-04-05T00:29:47.139Z,99.90
2023-04-05T00:32:14.047Z,99.90
2023-04-05T00:34:40.973Z,99.90
2023-04-05T00:37:07.865Z,99.90
2023-04-05T00:39:34.682Z,99.90
2023-04-05T00:42:04.869Z,99.90
2023-04-05T00:44:35.222Z,99.90
2023-04-05T00:47:03.591Z,99.90
2023-04-05T00:49:32.280Z,99.90
2023-04-05T00:51:59.447Z,99.90
2023-04-05T00:54:28.766Z,99.90
2023-04-05T00:57:00.054Z,99.90
2023-04-05T00:59:29.107Z,99.90
2023-04-05T01:02:04.990Z,99.90
2023-04-05T01:04:34.336Z,99.90
2023-04-05T01:07:23.816Z,99.90
2023-04-05T01:09:57.604Z,99.90
2023-04-05T01:12:28.425Z,99.90
2023-04-05T01:14:55.703Z,99.90
2023-04-05T01:17:24.591Z,99.90
2023-04-05T01:19:54.492Z,99.90
2023-04-05T01:22:58.785Z,99.90
2023-04-05T01:26:03.785Z,99.90
2023-04-05T01:28:57.935Z,99.90
2023-04-05T01:31:43.167Z,99.90
2023-04-05T01:34:19.014Z,99.90
2023-04-05T01:36:50.943Z,99.90
2023-04-05T01:39:20.810Z,99.90
2023-04-05T01:41:47.843Z,99.90
2023-04-05T01:44:17.961Z,99.90
2023-04-05T01:46:45.036Z,99.90
2023-04-05T01:49:11.872Z,99.90
2023-04-05T01:51:42.223Z,99.90
2023-04-05T01:54:09.646Z,99.90
2023-04-05T01:56:36.498Z,99.90
2023-04-05T01:59:03.610Z,99.90
2023-04-05T02:01:30.758Z,99.90
2023-04-05T02:03:57.980Z,99.90
2023-04-05T02:06:24.963Z,99.90
2023-04-05T02:08:51.810Z,99.90
2023-04-05T02:11:18.692Z,99.90
2023-04-05T02:13:45.540Z,99.90
2023-04-05T02:16:12.464Z,99.90
2023-04-05T02:18:39.361Z,99.90
2023-04-05T02:21:08.173Z,99.50
2023-04-05T02:23:35.628Z,94.30
2023-04-05T02:26:02.847Z,92.50
2023-04-05T02:28:29.789Z,82.60
2023-04-05T02:30:57.015Z,77.80
2023-04-05T02:33:23.897Z,71.20
2023-04-05T02:35:52.950Z,66.00
2023-04-05T02:38:19.985Z,72.00
2023-04-05T02:40:49.410Z,76.70
2023-04-05T02:43:16.693Z,62.50
2023-04-05T02:45:44.975Z,69.00
2023-04-05T02:48:13.727Z,70.60
2023-04-05T02:50:40.964Z,68.90
2023-04-05T02:53:07.994Z,65.70
2023-04-05T02:55:34.805Z,59.80
2023-04-05T02:58:01.749Z,75.80
2023-04-05T03:00:29.272Z,78.10
2023-04-05T03:02:56.834Z,76.30
2023-04-05T03:05:23.832Z,82.90
2023-04-05T03:07:52.278Z,97.90
2023-04-05T03:10:22.657Z,99.90
2023-04-05T03:12:51.658Z,99.90
2023-04-05T03:15:18.493Z,99.90
2023-04-05T03:17:46.073Z,99.90
2023-04-05T03:20:13.368Z,99.90
2023-04-05T03:22:41.192Z,99.90
2023-04-05T03:25:08.270Z,99.90
2023-04-05T03:27:35.205Z,99.90
2023-04-05T03:30:02.186Z,99.90
2023-04-05T03:32:29.075Z,99.90
2023-04-05T03:34:56.046Z,99.90
2023-04-05T03:37:22.900Z,99.90
2023-04-05T03:39:49.790Z,99.90
2023-04-05T03:42:17.863Z,99.90
2023-04-05T03:44:44.845Z,99.90
2023-04-05T03:47:13.297Z,99.90
2023-04-05T03:49:40.168Z,99.90
2023-04-05T03:52:07.115Z,99.90
2023-04-05T03:54:33.966Z,99.90
2023-04-05T03:57:01.300Z,99.90
2023-04-05T03:59:28.554Z,99.90
2023-04-05T04:01:56.052Z,99.90
2023-04-05T04:04:22.988Z,99.90
2023-04-05T04:06:49.799Z,99.90
2023-04-05T04:09:16.645Z,99.90
2023-04-05T04:11:43.446Z,99.90
2023-04-05T04:14:10.275Z,99.90
2023-04-05T04:16:37.160Z,99.90
2023-04-05T04:19:04.031Z,99.90
2023-04-05T04:21:32.792Z,99.90
2023-04-05T04:24:01.042Z,99.90
2023-04-05T04:26:29.313Z,99.90
2023-04-05T04:28:56.917Z,99.90
2023-04-05T04:31:23.818Z,99.90
2023-04-05T04:33:50.742Z,99.90
2023-04-05T04:36:19.169Z,99.90
2023-04-05T04:38:46.116Z,99.90
2023-04-05T04:41:14.209Z,99.90
2023-04-05T04:43:43.974Z,99.90
2023-04-05T04:46:15.469Z,99.90
2023-04-05T04:48:42.658Z,99.90
2023-04-05T04:51:09.653Z,99.90
2023-04-05T04:53:36.750Z,99.90
2023-04-05T04:56:09.844Z,99.90
2023-04-05T04:58:36.757Z,99.90
2023-04-05T05:01:09.994Z,99.90
2023-04-05T05:03:38.790Z,99.90
2023-04-05T05:06:06.142Z,99.90
2023-04-05T05:08:33.019Z,99.90
2023-04-05T05:11:01.358Z,99.90
2023-04-05T05:13:28.191Z,99.90
2023-04-05T05:15:55.112Z,99.90
2023-04-05T05:18:21.960Z,99.90
2023-04-05T05:20:51.374Z,99.90
2023-04-05T05:23:18.285Z,99.90
2023-04-05T05:25:45.192Z,99.90
2023-04-05T05:28:12.021Z,99.90
2023-04-05T05:30:39.164Z,99.90
2023-04-05T05:33:06.250Z,99.90
2023-04-05T05:35:33.223Z,99.90
2023-04-05T05:38:00.164Z,99.90
2023-04-05T05:40:27.236Z,99.90
2023-04-05T05:42:54.131Z,99.90
2023-04-05T05:45:21.206Z,99.90
2023-04-05T05:47:48.188Z,99.90
2023-04-05T05:50:17.258Z,99.90
2023-04-05T05:52:44.079Z,99.90
2023-04-05T05:55:10.966Z,99.90
2023-04-05T05:57:39.038Z,99.90
2023-04-05T06:00:10.836Z,44.60
2023-04-05T06:02:37.907Z,1.00
2023-04-05T06:05:05.214Z,1.00
2023-04-05T06:10:05.050Z,99.90
2023-04-05T06:12:31.989Z,1.00
2023-04-05T06:14:58.865Z,47.90
2023-04-05T06:17:25.756Z,1.00
2023-04-05T06:19:52.631Z,1.00
2023-04-05T06:22:19.813Z,1.00
2023-04-05T06:24:46.661Z,1.00
2023-04-05T06:27:14.821Z,27.40
2023-04-05T06:29:41.730Z,99.90
2023-04-05T06:32:08.671Z,99.90
2023-04-05T06:34:35.702Z,1.00
2023-04-05T06:37:03.010Z,99.90
2023-04-05T06:39:29.938Z,99.90
2023-04-05T06:41:56.853Z,67.80
2023-04-05T06:44:23.749Z,99.90
2023-04-05T06:46:50.612Z,1.00
2023-04-05T06:49:17.480Z,1.00
2023-04-05T06:51:44.336Z,1.00
2023-04-05T06:54:12.087Z,99.90
2023-04-05T06:56:39.256Z,99.90
2023-04-05T06:59:06.432Z,99.90
2023-04-05T07:01:33.812Z,36.60
2023-04-05T07:04:01.093Z,1.00
2023-04-05T07:06:30.029Z,1.00
2023-04-05T07:08:56.881Z,1.00
2023-04-05T07:11:23.718Z,99.90
2023-04-05T07:13:50.638Z,1.00
2023-04-05T07:16:19.472Z,1.00
2023-04-05T07:18:46.356Z,1.00
2023-04-05T07:21:13.258Z,1.00
2023-04-05T07:23:40.719Z,1.00
2023-04-05T07:26:08.531Z,1.00
2023-04-05T07:28:36.629Z,1.00
2023-04-05T07:31:04.837Z,1.00
2023-04-05T07:33:31.892Z,99.90
2023-04-05T07:35:59.213Z,99.90
2023-04-05T07:38:29.261Z,1.00
2023-04-05T07:40:56.568Z,1.00
2023-04-05T07:43:25.672Z,1.00
2023-04-05T07:45:56.553Z,1.00
2023-04-05T07:48:23.356Z,1.00
2023-04-05T07:50:53.046Z,1.00
2023-04-05T07:53:20.127Z,99.90
2023-04-05T07:55:47.420Z,99.90
2023-04-05T07:58:14.458Z,99.90
2023-04-05T08:00:41.528Z,99.90
2023-04-05T08:03:08.801Z,99.90
2023-04-05T08:05:35.752Z,99.90
2023-04-05T08:08:02.845Z,99.90
2023-04-05T08:10:29.697Z,99.90
2023-04-05T08:12:56.564Z,99.90
2023-04-05T08:15:23.462Z,99.90
2023-04-05T08:17:50.324Z,99.90
2023-04-05T08:20:17.229Z,99.90
2023-04-05T08:22:44.104Z,99.90
2023-04-05T08:25:11.008Z,99.90
2023-04-05T08:27:37.931Z,99.90
2023-04-05T08:30:06.202Z,99.90
2023-04-05T08:32:34.708Z,1.00
2023-04-05T08:35:01.954Z,99.90
2023-04-05T08:37:28.837Z,99.90
2023-04-05T08:39:55.747Z,99.90
2023-04-05T08:42:30.568Z,99.90
2023-04-05T08:44:59.850Z,99.90
2023-04-05T08:47:28.087Z,99.90
2023-04-05T08:49:55.347Z,99.90
2023-04-05T08:52:22.388Z,99.90
2023-04-05T08:54:50.907Z,1.00
2023-04-05T08:57:19.181Z,1.00
2023-04-05T08:59:46.683Z,99.90
2023-04-05T09:02:19.221Z,99.90
2023-04-05T09:04:48.583Z,99.90
2023-04-05T09:07:15.672Z,99.90
2023-04-05T09:09:46.821Z,99.90
2023-04-05T09:12:14.635Z,1.00
2023-04-05T09:14:41.968Z,16.90
2023-04-05T09:17:09.847Z,99.90
2023-04-05T09:19:36.860Z,1.00
2023-04-05T09:22:08.304Z,99.90
2023-04-05T09:24:44.002Z,99.90
2023-04-05T09:27:12.957Z,1.00
2023-04-05T09:29:41.646Z,90.20
2023-04-05T09:32:10.801Z,1.00
2023-04-05T09:34:38.402Z,93.80
2023-04-05T09:37:20.070Z,1.00
2023-04-05T09:39:50.024Z,99.90
2023-04-05T09:42:18.522Z,99.90
2023-04-05T09:45:07.350Z,99.90
2023-04-05T09:47:35.047Z,1.00
2023-04-05T09:50:06.917Z,1.00
2023-04-05T09:52:33.749Z,99.90
2023-04-05T09:55:07.321Z,1.00
2023-04-05T09:57:36.729Z,1.00
2023-04-05T10:00:06.121Z,1.00
2023-04-05T10:02:38.064Z,99.90
2023-04-05T10:05:19.195Z,99.90
2023-04-05T10:07:46.149Z,99.90
2023-04-05T10:10:13.844Z,99.90
2023-04-05T10:12:42.010Z,99.90
2023-04-05T10:15:09.690Z,99.90
2023-04-05T10:18:13.167Z,99.90
2023-04-05T10:20:41.766Z,99.90
2023-04-05T10:23:22.206Z,99.90
2023-04-05T10:25:53.062Z,99.90
2023-04-05T10:28:41.613Z,71.80
2023-04-05T10:31:34.192Z,99.90
2023-04-05T10:34:08.324Z,1.00
2023-04-05T10:36:47.482Z,1.00
2023-04-05T10:39:17.810Z,1.00
2023-04-05T10:41:49.498Z,1.00
2023-04-05T10:44:25.760Z,1.00
2023-04-05T10:46:54.941Z,99.90
2023-04-05T10:49:34.206Z,99.90
2023-04-05T10:52:02.864Z,99.90
2023-04-05T10:54:33.935Z,99.90
2023-04-05T10:57:03.516Z,1.00
2023-04-05T10:59:31.431Z,99.90
2023-04-05T11:01:59.064Z,90.40
2023-04-05T11:04:26.101Z,99.90
2023-04-05T11:07:16.497Z,1.00
2023-04-05T11:10:02.260Z,1.00
2023-04-05T11:12:47.495Z,1.00
2023-04-05T11:15:27.958Z,99.90
2023-04-05T11:18:10.251Z,1.00
2023-04-05T11:20:52.482Z,55.50
2023-04-05T11:23:24.932Z,99.90
2023-04-05T11:26:03.168Z,46.40
2023-04-05T11:28:32.186Z,99.90
2023-04-05T11:31:19.381Z,99.90
2023-04-05T11:33:55.834Z,1.00
2023-04-05T11:36:50.587Z,1.00
2023-04-05T11:39:22.984Z,99.90
2023-04-05T11:42:03.276Z,99.90
2023-04-05T11:44:32.148Z,21.30
2023-04-05T11:46:59.188Z,28.20
2023-04-05T11:49:26.306Z,1.00
2023-04-05T11:51:53.921Z,37.80
2023-04-05T11:54:31.130Z,1.00
2023-04-05T11:56:58.073Z,1.00
2023-04-05T11:59:43.032Z,1.00
2023-04-05T12:02:09.922Z,1.00
2023-04-05T12:04:38.029Z,1.00
2023-04-05T12:07:12.448Z,1.00
2023-04-05T12:10:01.002Z,1.00
2023-04-05T12:12:28.009Z,1.00
2023-04-05T12:15:00.653Z,1.00
2023-04-05T12:17:43.294Z,1.00
2023-04-05T12:20:12.212Z,1.00
2023-04-05T12:22:40.818Z,99.90
2023-04-05T12:25:08.764Z,99.90
2023-04-05T12:27:36.038Z,1.00
2023-04-05T12:30:23.063Z,1.00
2023-04-05T12:32:54.709Z,1.00
2023-04-05T12:35:33.202Z,1.00
2023-04-05T12:38:05.923Z,99.90
2023-04-05T12:40:34.882Z,1.00
2023-04-05T12:43:06.732Z,1.00
2023-04-05T12:45:41.013Z,1.00
2023-04-05T12:48:11.233Z,1.00
2023-04-05T12:50:46.581Z,1.00
2023-04-05T12:53:18.585Z,1.00
2023-04-05T12:55:49.809Z,1.00
2023-04-05T12:58:17.862Z,1.00
2023-04-05T13:00:45.486Z,1.00
2023-04-05T13:03:18.375Z,1.00
2023-04-05T13:05:45.651Z,1.00
2023-04-05T13:08:12.593Z,1.00
2023-04-05T13:10:39.765Z,1.00
2023-04-05T13:13:06.956Z,1.00
2023-04-05T13:15:33.862Z,1.00
2023-04-05T13:18:01.131Z,1.00
2023-04-05T13:20:28.154Z,1.00
2023-04-05T13:22:55.093Z,1.00
2023-04-05T13:25:22.132Z,1.00
2023-04-05T13:27:49.426Z,1.00
2023-04-05T13:30:17.081Z,1.00
2023-04-05T13:32:44.143Z,1.00
2023-04-05T13:35:11.453Z,1.00
2023-04-05T13:37:38.804Z,1.00
2023-04-05T13:40:06.609Z,1.00
2023-04-05T13:42:33.479Z,1.00
2023-04-05T13:45:00.400Z,1.00
2023-04-05T13:47:27.265Z,1.00
2023-04-05T13:49:54.227Z,1.00
2023-04-05T13:52:21.052Z,1.00
2023-04-05T13:54:47.890Z,1.00
2023-04-05T13:57:29.091Z,1.00
2023-04-05T13:59:56.152Z,1.00
2023-04-05T14:02:26.136Z,1.00
2023-04-05T14:04:56.127Z,1.00
2023-04-05T14:09:57.653Z,1.00
2023-04-05T14:12:24.947Z,1.00
2023-04-05T14:14:51.970Z,99.90
2023-04-05T14:17:18.927Z,99.90
2023-04-05T14:19:45.826Z,99.90
2023-04-05T14:22:12.758Z,99.90
2023-04-05T14:24:39.684Z,99.90
2023-04-05T14:27:06.641Z,99.90
2023-04-05T14:29:33.583Z,1.00
2023-04-05T14:32:00.548Z,1.00
2023-04-05T14:34:27.531Z,99.90
2023-04-05T14:36:58.527Z,99.90
2023-04-05T14:39:25.581Z,99.90
2023-04-05T14:41:53.024Z,99.90
2023-04-05T14:44:20.124Z,99.90
2023-04-05T14:46:47.798Z,99.90
2023-04-05T14:49:15.868Z,99.90
2023-04-05T14:51:42.765Z,99.90
2023-04-05T14:54:09.704Z,99.90
2023-04-05T14:56:39.622Z,99.90
2023-04-05T14:59:06.695Z,99.90
2023-04-05T15:01:33.784Z,99.90
2023-04-05T15:04:00.980Z,99.90
2023-04-05T15:06:28.828Z,99.90
2023-04-05T15:08:55.913Z,99.90
2023-04-05T15:11:22.833Z,99.90
2023-04-05T15:13:49.693Z,99.90
2023-04-05T15:16:16.617Z,99.90
2023-04-05T15:18:43.498Z,99.90
2023-04-05T15:21:10.644Z,99.90
2023-04-05T15:23:37.593Z,99.90
2023-04-05T15:26:04.475Z,99.90
2023-04-05T15:28:31.508Z,99.90
2023-04-05T15:30:58.389Z,99.90
2023-04-05T15:33:25.486Z,99.90
2023-04-05T15:35:52.395Z,99.90
2023-04-05T15:38:19.359Z,99.90
2023-04-05T15:40:52.704Z,99.90
2023-04-05T15:43:20.960Z,99.90
2023-04-05T15:45:47.912Z,99.90
2023-04-05T15:48:14.891Z,99.90
2023-04-05T15:50:42.416Z,99.90
2023-04-05T15:53:09.752Z,99.90
2023-04-05T15:55:36.647Z,99.90
2023-04-05T15:58:03.679Z,99.90
2023-04-05T16:00:30.585Z,99.90
2023-04-05T16:03:00.681Z,99.90
2023-04-05T16:05:27.969Z,99.90
2023-04-05T16:07:55.744Z,99.90
2023-04-05T16:10:22.657Z,99.90
2023-04-05T16:12:49.669Z,99.90
2023-04-05T16:15:16.808Z,99.90
2023-04-05T16:17:43.813Z,99.90
2023-04-05T16:20:11.140Z,99.90
2023-04-05T16:22:38.083Z,99.90
2023-04-05T16:25:05.451Z,1.00
2023-04-05T16:27:33.825Z,99.90
2023-04-05T16:30:01.148Z,99.90
2023-04-05T16:32:28.086Z,99.90
2023-04-05T16:34:55.037Z,99.90
2023-04-05T16:37:22.042Z,1.00
2023-04-05T16:39:48.920Z,1.00
2023-04-05T16:42:15.958Z,1.00
2023-04-05T16:44:42.834Z,1.00
2023-04-05T16:47:09.808Z,1.00
2023-04-05T16:49:37.105Z,1.00
2023-04-05T16:52:04.314Z,1.00
2023-04-05T16:54:31.681Z,1.00
2023-04-05T16:56:58.880Z,1.00
2023-04-05T16:59:26.096Z,1.00
2023-04-05T17:01:53.314Z,1.00
2023-04-05T17:04:20.278Z,1.00
2023-04-05T17:06:47.128Z,1.00
2023-04-05T17:09:14.252Z,1.00
2023-04-05T17:11:41.227Z,1.00
2023-04-05T17:14:08.134Z,1.00
2023-04-05T17:16:35.029Z,1.00
2023-04-05T17:19:02.219Z,1.00
2023-04-05T17:21:29.318Z,1.00
2023-04-05T17:23:56.240Z,1.00
2023-04-05T17:26:24.126Z,1.00
2023-04-05T17:28:50.985Z,35.20
2023-04-05T17:31:19.209Z,99.90
2023-04-05T17:33:48.318Z,90.00
2023-04-05T17:36:16.785Z,99.90
2023-04-05T17:38:44.617Z,1.00
2023-04-05T17:41:11.937Z,1.00
2023-04-05T17:43:38.866Z,1.00
2023-04-05T17:46:05.935Z,99.90
2023-04-05T17:48:33.159Z,1.00
2023-04-05T17:51:05.000Z,99.90
2023-04-05T17:53:31.866Z,1.00
2023-04-05T17:55:58.773Z,1.00
2023-04-05T17:58:25.661Z,72.60
2023-04-05T18:00:52.635Z,1.00
2023-04-05T18:03:19.640Z,1.00
2023-04-05T18:05:53.693Z,1.00
2023-04-05T18:08:21.570Z,1.00
2023-04-05T18:10:48.775Z,1.00
2023-04-05T18:13:16.019Z,1.00
2023-04-05T18:15:42.909Z,1.00
2023-04-05T18:18:09.868Z,99.90
2023-04-05T18:20:36.824Z,99.90
2023-04-05T18:23:03.797Z,1.00
2023-04-05T18:25:30.677Z,99.90
2023-04-05T18:27:57.570Z,99.90
2023-04-05T18:30:24.454Z,52.00
2023-04-05T18:32:51.379Z,99.90
2023-04-05T18:37:58.878Z,99.90
2023-04-05T18:40:26.383Z,1.00
2023-04-05T19:22:05.145Z,1.00
2023-04-05T19:24:32.020Z,1.00
2023-04-05T19:26:58.887Z,99.90
2023-04-05T19:29:25.912Z,1.00
2023-04-05T19:31:56.071Z,1.00
2023-04-05T19:34:23.004Z,1.00
2023-04-05T19:36:49.956Z,1.00
2023-04-05T19:39:16.879Z,1.00
2023-04-05T19:41:44.118Z,1.00
2023-04-05T19:44:14.506Z,1.00
2023-04-05T19:46:41.735Z,1.00
2023-04-05T19:49:14.457Z,1.00
2023-04-05T19:51:42.769Z,1.00
2023-04-05T19:54:14.940Z,1.00
2023-04-05T19:56:42.162Z,1.00
2023-04-05T19:59:28.259Z,1.00
2023-04-05T20:01:55.549Z,1.00
2023-04-05T20:04:23.952Z,1.00
2023-04-05T20:06:55.447Z,1.00
2023-04-05T20:09:24.491Z,1.00
2023-04-05T20:12:00.148Z,1.00
2023-04-05T20:14:30.585Z,1.00
2023-04-05T20:16:58.792Z,1.00
2023-04-05T20:19:30.828Z,1.00
2023-04-05T20:22:03.110Z,1.00
2023-04-05T20:24:30.612Z,1.00
2023-04-05T20:26:57.655Z,1.00
2023-04-05T20:29:29.318Z,1.00
2023-04-05T20:31:56.556Z,1.00
2023-04-05T20:34:34.441Z,1.00
2023-04-05T20:37:12.103Z,1.00
2023-04-05T20:39:39.404Z,1.00
2023-04-05T20:42:07.560Z,1.00
2023-04-05T20:44:34.460Z,1.00
2023-04-05T20:47:01.769Z,1.00
2023-04-05T20:49:28.788Z,1.00
2023-04-05T20:51:57.307Z,1.00
2023-04-05T20:54:24.488Z,1.00
2023-04-05T20:56:51.416Z,1.00
2023-04-05T20:59:21.523Z,1.00
2023-04-05T21:01:49.378Z,1.00
2023-04-05T21:04:16.397Z,1.00
2023-04-05T21:06:43.348Z,1.00
2023-04-05T21:09:10.708Z,1.00
2023-04-05T21:11:37.892Z,1.00
2023-04-05T21:14:04.826Z,11.60
2023-04-05T21:16:31.966Z,1.00
2023-04-05T21:18:59.055Z,1.00
2023-04-05T21:21:26.421Z,1.00
2023-04-05T21:23:53.425Z,1.00
2023-04-05T21:26:20.320Z,1.00
2023-04-05T21:28:47.345Z,6.00
2023-04-05T21:31:14.266Z,16.90
2023-04-05T21:33:41.743Z,26.20
2023-04-05T21:36:08.803Z,25.30
2023-04-05T21:38:36.050Z,24.50
2023-04-05T21:41:02.936Z,25.60
2023-04-05T21:43:29.855Z,28.70
2023-04-05T21:45:56.980Z,31.60
2023-04-05T21:48:24.970Z,41.30
2023-04-05T21:50:51.923Z,43.40
2023-04-05T21:53:18.992Z,52.70
2023-04-05T21:55:46.212Z,61.90
2023-04-05T21:58:13.138Z,62.30
2023-04-05T22:00:40.067Z,68.30
2023-04-05T22:03:07.226Z,66.50
2023-04-05T22:05:38.666Z,73.50
2023-04-05T22:08:06.742Z,83.60
2023-04-05T22:10:37.222Z,80.00
2023-04-05T22:13:04.184Z,82.50
2023-04-05T22:15:31.083Z,88.10
2023-04-05T22:17:58.054Z,94.20
2023-04-05T22:20:24.992Z,91.50
2023-04-05T22:22:52.113Z,93.00
2023-04-05T22:25:19.073Z,94.20
2023-04-05T22:27:46.293Z,94.50
2023-04-05T22:30:13.880Z,91.50
2023-04-05T22:32:41.536Z,91.30
2023-04-05T22:35:08.781Z,95.70
2023-04-05T22:37:38.114Z,96.70
2023-04-05T22:40:05.694Z,92.10
2023-04-05T22:42:32.574Z,91.00
2023-04-05T22:44:59.635Z,90.50
2023-04-05T22:47:26.685Z,90.40
2023-04-05T22:49:53.830Z,91.90
2023-04-05T22:52:20.854Z,96.70
2023-04-05T22:54:47.835Z,92.80
2023-04-05T22:57:14.787Z,92.50
2023-04-05T22:59:41.813Z,96.00
2023-04-05T23:02:09.757Z,93.00
2023-04-05T23:04:36.758Z,94.70
2023-04-05T23:07:03.770Z,96.30
2023-04-05T23:09:30.725Z,99.90
2023-04-05T23:11:57.690Z,99.90
2023-04-05T23:14:24.560Z,99.90
2023-04-05T23:16:51.412Z,99.90
2023-04-05T23:19:18.301Z,99.90
2023-04-05T23:21:45.236Z,99.90
2023-04-05T23:24:12.511Z,99.90
2023-04-05T23:26:39.504Z,99.90
2023-04-05T23:29:07.131Z,99.90
2023-04-05T23:31:34.297Z,99.90
2023-04-05T23:34:01.236Z,99.90
2023-04-05T23:36:28.947Z,99.90
2023-04-05T23:38:56.592Z,99.90
2023-04-05T23:41:23.478Z,99.90
2023-04-05T23:43:50.845Z,99.90
2023-04-05T23:46:22.162Z,99.90
2023-04-05T23:48:49.423Z,99.90
2023-04-05T23:51:16.421Z,99.90
2023-04-05T23:53:43.324Z,99.90
2023-04-05T23:56:10.304Z,99.90
2023-04-05T23:58:37.260Z,99.90
